createdAt,value
2022-12-26T05:01:24.875Z,72.64
2022-12-26T05:04:12.445Z,72.34
2022-12-26T05:06:59.730Z,72.31
2022-12-26T05:09:35.460Z,72.89
2022-12-26T05:12:10.405Z,72.48
2022-12-26T05:14:39.766Z,72.54
2022-12-26T05:17:27.630Z,72.74
2022-12-26T05:20:15.306Z,72.58
2022-12-26T05:23:05.542Z,72.72
2022-12-26T05:26:01.304Z,72.59
2022-12-26T05:28:43.742Z,72.69
2022-12-26T05:31:18.122Z,72.53
2022-12-26T05:34:06.528Z,72.56
2022-12-26T05:36:39.405Z,72.78
2022-12-26T05:39:09.906Z,72.68
2022-12-26T05:41:40.965Z,73.08
2022-12-26T05:44:11.294Z,72.93
2022-12-26T05:46:43.014Z,72.98
2022-12-26T05:49:12.303Z,73.01
2022-12-26T05:51:40.584Z,73.07
2022-12-26T05:54:09.850Z,72.88
2022-12-26T05:56:40.951Z,72.66
2022-12-26T05:59:14.171Z,72.99
2022-12-26T06:01:43.632Z,72.94
2022-12-26T06:04:12.841Z,72.85
2022-12-26T06:06:42.031Z,73.01
2022-12-26T06:09:10.762Z,72.73
2022-12-26T06:11:48.409Z,73.00
2022-12-26T06:14:18.674Z,72.82
2022-12-26T06:16:47.673Z,73.15
2022-12-26T06:19:16.919Z,72.89
2022-12-26T06:21:45.727Z,72.86
2022-12-26T06:24:14.734Z,73.11
2022-12-26T06:26:43.965Z,73.01
2022-12-26T06:29:13.303Z,72.94
2022-12-26T06:31:41.879Z,73.02
2022-12-26T06:34:11.386Z,73.16
2022-12-26T06:36:39.787Z,72.83
2022-12-26T06:39:09.149Z,72.95
2022-12-26T06:41:38.624Z,72.77
2022-12-26T06:44:07.248Z,73.08
2022-12-26T06:46:36.757Z,72.94
2022-12-26T06:49:06.706Z,73.09
2022-12-26T06:51:35.984Z,72.85
2022-12-26T06:54:05.027Z,72.97
2022-12-26T06:56:34.737Z,73.07
2022-12-26T06:59:06.752Z,73.08
2022-12-26T07:01:35.257Z,72.98
2022-12-26T07:04:05.332Z,72.85
2022-12-26T07:06:39.021Z,72.95
2022-12-26T07:09:13.612Z,73.19
2022-12-26T07:11:45.701Z,73.23
2022-12-26T07:14:15.717Z,73.01
2022-12-26T07:16:46.866Z,72.95
2022-12-26T07:19:16.605Z,73.05
2022-12-26T07:21:45.455Z,73.01
2022-12-26T07:24:17.002Z,73.14
2022-12-26T07:26:46.151Z,72.85
2022-12-26T07:29:15.731Z,72.74
2022-12-26T07:31:44.981Z,73.18
2022-12-26T07:34:14.164Z,73.14
2022-12-26T07:36:43.797Z,73.19
2022-12-26T07:39:15.684Z,72.88
2022-12-26T07:42:00.197Z,73.13
2022-12-26T07:44:31.292Z,73.05
2022-12-26T07:47:01.206Z,73.43
2022-12-26T07:49:29.710Z,72.97
2022-12-26T07:51:58.811Z,73.20
2022-12-26T07:54:30.322Z,73.17
2022-12-26T07:57:21.756Z,73.22
2022-12-26T07:59:52.005Z,73.26
2022-12-26T08:02:24.490Z,73.32
2022-12-26T08:04:53.533Z,73.16
2022-12-26T08:07:22.801Z,73.29
2022-12-26T08:09:51.119Z,73.16
2022-12-26T08:12:21.869Z,72.97
2022-12-26T08:14:51.837Z,73.24
2022-12-26T08:17:20.926Z,72.98
2022-12-26T08:19:50.355Z,73.34
2022-12-26T08:22:19.422Z,73.27
2022-12-26T08:24:48.564Z,72.92
2022-12-26T08:27:17.754Z,72.94
2022-12-26T08:29:48.617Z,72.97
2022-12-26T08:32:17.898Z,73.15
2022-12-26T08:34:47.300Z,73.30
2022-12-26T08:37:16.599Z,73.17
2022-12-26T08:39:46.149Z,73.30
2022-12-26T08:42:15.656Z,73.29
2022-12-26T08:44:44.772Z,73.29
2022-12-26T08:47:15.097Z,73.38
2022-12-26T08:49:44.526Z,73.41
2022-12-26T08:52:13.916Z,73.23
2022-12-26T08:54:43.093Z,73.15
2022-12-26T08:57:12.363Z,73.23
2022-12-26T08:59:40.919Z,73.06
2022-12-26T09:02:12.632Z,73.38
2022-12-26T09:04:41.703Z,73.03
2022-12-26T09:07:10.370Z,73.25
2022-12-26T09:09:40.388Z,73.37
2022-12-26T09:12:08.764Z,73.21
2022-12-26T09:14:39.541Z,73.26
2022-12-26T09:17:10.246Z,73.27
2022-12-26T09:19:40.001Z,73.30
2022-12-26T09:22:31.935Z,73.35
2022-12-26T09:25:02.995Z,73.42
2022-12-26T09:27:32.171Z,73.03
2022-12-26T09:30:01.450Z,73.32
2022-12-26T09:32:34.735Z,73.31
2022-12-26T09:35:04.729Z,73.37
2022-12-26T09:37:33.774Z,73.26
2022-12-26T09:40:04.531Z,73.62
2022-12-26T09:42:51.992Z,73.41
2022-12-26T09:45:31.512Z,73.32
2022-12-26T09:48:16.035Z,73.58
2022-12-26T09:50:45.165Z,73.26
2022-12-26T09:53:35.796Z,73.33
2022-12-26T09:56:18.304Z,73.50
2022-12-26T09:59:01.527Z,73.46
2022-12-26T10:01:38.967Z,73.79
2022-12-26T10:04:30.163Z,73.43
2022-12-26T10:07:07.566Z,73.58
2022-12-26T10:09:57.537Z,73.61
2022-12-26T10:13:00.882Z,73.66
2022-12-26T10:16:05.822Z,73.46
2022-12-26T10:18:57.458Z,73.46
2022-12-26T10:21:32.307Z,73.67
2022-12-26T10:24:11.626Z,73.65
2022-12-26T10:26:44.681Z,73.41
2022-12-26T10:29:29.388Z,73.49
2022-12-26T10:32:07.828Z,73.72
2022-12-26T10:34:50.335Z,73.51
2022-12-26T10:37:32.296Z,73.59
2022-12-26T10:40:11.073Z,73.79
2022-12-26T10:42:43.722Z,73.64
2022-12-26T10:45:18.419Z,73.89
2022-12-26T10:47:50.453Z,73.87
2022-12-26T10:50:27.766Z,73.76
2022-12-26T10:53:00.551Z,73.78
2022-12-26T10:55:34.721Z,73.88
2022-12-26T10:58:24.584Z,73.95
2022-12-26T11:00:53.909Z,73.80
2022-12-26T11:03:23.723Z,74.03
2022-12-26T11:06:07.455Z,73.98
2022-12-26T11:08:49.747Z,73.95
2022-12-26T11:11:19.283Z,74.06
2022-12-26T11:14:01.250Z,74.01
2022-12-26T11:16:38.180Z,74.02
2022-12-26T11:19:07.045Z,73.98
2022-12-26T11:21:37.287Z,73.93
2022-12-26T11:24:09.569Z,73.89
2022-12-26T11:26:39.189Z,73.99
2022-12-26T11:29:11.814Z,73.99
2022-12-26T11:31:51.373Z,74.04
2022-12-26T11:34:35.276Z,73.91
2022-12-26T11:37:07.082Z,73.97
2022-12-26T11:39:38.634Z,74.02
2022-12-26T11:42:18.826Z,73.98
2022-12-26T11:44:52.698Z,74.09
2022-12-26T11:47:27.407Z,74.21
2022-12-26T11:50:01.376Z,74.09
2022-12-26T11:52:45.060Z,74.12
2022-12-26T11:55:27.496Z,74.07
2022-12-26T11:58:08.598Z,73.93
2022-12-26T12:00:44.260Z,74.06
2022-12-26T12:03:17.617Z,74.18
2022-12-26T12:06:05.688Z,73.99
2022-12-26T12:08:54.631Z,74.12
2022-12-26T12:12:03.545Z,74.04
2022-12-26T12:15:04.061Z,74.05
2022-12-26T12:17:39.881Z,73.91
2022-12-26T12:20:30.997Z,73.97
2022-12-26T12:23:12.434Z,74.12
2022-12-26T12:26:17.516Z,74.03
2022-12-26T12:29:06.454Z,74.10
2022-12-26T12:32:17.530Z,74.11
2022-12-26T12:34:58.697Z,74.07
2022-12-26T12:37:53.781Z,74.21
2022-12-26T12:40:45.890Z,74.13
2022-12-26T12:43:22.736Z,74.15
2022-12-26T12:46:13.503Z,74.08
2022-12-26T12:49:08.729Z,74.08
2022-12-26T12:51:53.463Z,74.11
2022-12-26T12:54:53.360Z,73.97
2022-12-26T12:57:50.308Z,74.02
2022-12-26T13:00:25.112Z,74.11
2022-12-26T13:03:06.221Z,74.05
2022-12-26T13:06:06.839Z,74.00
2022-12-26T13:08:44.899Z,74.09
2022-12-26T13:11:26.486Z,74.03
2022-12-26T13:14:19.944Z,74.05
2022-12-26T13:17:14.064Z,73.95
2022-12-26T13:20:16.022Z,74.03
2022-12-26T13:23:08.075Z,74.04
2022-12-26T13:25:44.809Z,74.00
2022-12-26T13:28:29.381Z,73.97
2022-12-26T13:30:58.630Z,74.05
2022-12-26T13:33:28.534Z,73.97
2022-12-26T13:36:05.917Z,73.99
2022-12-26T13:38:56.127Z,74.10
2022-12-26T13:41:45.435Z,74.02
2022-12-26T13:44:21.141Z,74.05
2022-12-26T13:46:50.314Z,73.92
2022-12-26T13:49:37.270Z,74.03
2022-12-26T13:52:12.384Z,74.02
2022-12-26T13:55:09.578Z,74.01
2022-12-26T13:57:45.172Z,74.01
2022-12-26T14:00:18.760Z,74.04
2022-12-26T14:03:18.111Z,74.08
2022-12-26T14:06:25.565Z,73.92
2022-12-26T14:09:18.652Z,74.08
2022-12-26T14:11:50.391Z,74.03
2022-12-26T14:14:30.500Z,74.11
2022-12-26T14:17:14.662Z,74.16
2022-12-26T14:20:01.030Z,74.11
2022-12-26T14:22:49.477Z,74.12
2022-12-26T14:25:35.293Z,74.03
2022-12-26T14:28:19.876Z,74.13
2022-12-26T14:30:58.928Z,74.16
2022-12-26T14:33:34.936Z,74.04
2022-12-26T14:36:13.407Z,74.06
2022-12-26T14:39:14.454Z,74.16
2022-12-26T14:42:43.448Z,74.13
2022-12-26T14:45:26.838Z,74.05
2022-12-26T14:47:56.599Z,73.97
2022-12-26T14:50:41.827Z,74.09
2022-12-26T14:53:28.622Z,74.05
2022-12-26T14:56:01.521Z,74.06
2022-12-26T14:58:53.149Z,73.97
2022-12-26T15:01:24.498Z,73.99
2022-12-26T15:04:10.175Z,74.06
2022-12-26T15:06:58.408Z,74.15
2022-12-26T15:09:50.355Z,74.01
2022-12-26T15:12:37.066Z,73.98
2022-12-26T15:15:41.895Z,73.90
2022-12-26T15:18:35.295Z,73.86
2022-12-26T15:21:41.917Z,73.86
2022-12-26T15:25:17.028Z,73.95
2022-12-26T15:27:30.816Z,74.03
2022-12-26T15:30:14.663Z,74.02
2022-12-26T15:33:22.319Z,74.09
2022-12-26T15:36:14.429Z,73.99
2022-12-26T15:38:53.314Z,74.00
2022-12-26T15:41:54.383Z,73.81
2022-12-26T15:44:50.948Z,73.83
2022-12-26T15:47:34.631Z,73.98
2022-12-26T15:50:21.803Z,74.02
2022-12-26T15:53:16.449Z,73.90
2022-12-26T15:56:11.917Z,73.86
2022-12-26T15:59:07.293Z,73.74
2022-12-26T16:01:43.752Z,73.82
2022-12-26T16:04:22.963Z,73.77
2022-12-26T16:07:07.329Z,73.69
2022-12-26T16:09:45.269Z,73.66
2022-12-26T16:12:21.659Z,73.76
2022-12-26T16:15:01.157Z,73.68
2022-12-26T16:17:30.539Z,73.75
2022-12-26T16:19:59.687Z,73.73
2022-12-26T16:22:50.039Z,73.69
2022-12-26T16:25:26.564Z,73.63
2022-12-26T16:27:58.806Z,73.68
2022-12-26T16:30:33.504Z,73.75
2022-12-26T16:33:03.750Z,73.75
2022-12-26T16:35:38.645Z,73.77
2022-12-26T16:38:12.733Z,73.97
2022-12-26T16:40:48.909Z,73.73
2022-12-26T16:43:28.147Z,73.72
2022-12-26T16:46:02.907Z,73.76
2022-12-26T16:48:33.830Z,73.71
2022-12-26T16:51:06.706Z,73.74
2022-12-26T16:53:35.009Z,73.71
2022-12-26T16:56:28.682Z,73.79
2022-12-26T16:59:09.694Z,73.63
2022-12-26T17:01:41.699Z,73.77
2022-12-26T17:04:13.012Z,73.68
2022-12-26T17:06:55.510Z,73.66
2022-12-26T17:09:26.484Z,73.64
2022-12-26T17:12:01.702Z,73.72
2022-12-26T17:14:43.046Z,73.62
2022-12-26T17:17:23.885Z,73.60
2022-12-26T17:19:55.949Z,73.58
2022-12-26T17:22:36.076Z,73.51
2022-12-26T17:25:24.667Z,73.51
2022-12-26T17:28:08.516Z,73.35
2022-12-26T17:30:39.301Z,73.46
2022-12-26T17:33:15.570Z,73.34
2022-12-26T17:43:11.047Z,73.34
2022-12-26T17:45:46.647Z,73.23
2022-12-26T17:48:16.441Z,73.35
2022-12-26T17:50:48.636Z,73.39
2022-12-26T17:53:23.392Z,73.41
2022-12-26T17:55:54.014Z,73.31
2022-12-26T17:58:24.599Z,73.37
2022-12-26T18:00:54.249Z,73.43
2022-12-26T18:03:23.585Z,73.46
2022-12-26T18:05:56.646Z,73.51
2022-12-26T18:08:33.624Z,73.32
2022-12-26T18:11:05.153Z,73.37
2022-12-26T18:13:34.268Z,73.50
2022-12-26T18:16:04.366Z,73.47
2022-12-26T18:18:38.322Z,73.37
2022-12-26T18:21:10.359Z,73.26
2022-12-26T18:23:39.127Z,73.42
2022-12-26T18:26:20.913Z,73.48
2022-12-26T18:28:50.587Z,73.51
2022-12-26T18:31:20.075Z,73.47
2022-12-26T18:33:49.243Z,73.52
2022-12-26T18:36:18.916Z,73.44
2022-12-26T18:38:47.473Z,73.32
2022-12-26T18:41:17.818Z,73.24
2022-12-26T18:43:46.749Z,73.28
2022-12-26T18:46:21.425Z,73.31
2022-12-26T18:48:51.449Z,73.24
2022-12-26T18:51:21.420Z,73.18
2022-12-26T18:53:50.370Z,73.16
2022-12-26T18:56:21.271Z,73.21
2022-12-26T18:58:57.516Z,73.16
2022-12-26T19:01:27.198Z,73.14
2022-12-26T19:03:58.027Z,73.21
2022-12-26T19:06:28.705Z,73.15
2022-12-26T19:08:58.823Z,73.18
2022-12-26T19:11:27.940Z,73.16
2022-12-26T19:13:57.597Z,73.15
2022-12-26T19:16:27.093Z,72.97
2022-12-26T19:18:55.853Z,73.04
2022-12-26T19:21:25.113Z,72.93
2022-12-26T19:23:54.212Z,72.97
2022-12-26T19:26:23.494Z,72.97
2022-12-26T19:28:54.086Z,73.01
2022-12-26T19:31:23.839Z,72.94
2022-12-26T19:33:52.482Z,72.90
2022-12-26T19:36:21.294Z,72.85
2022-12-26T19:38:54.546Z,72.83
2022-12-26T19:41:23.418Z,72.83
2022-12-26T19:43:56.907Z,72.71
2022-12-26T19:46:26.405Z,72.61
2022-12-26T19:48:55.283Z,72.92
2022-12-26T19:51:23.969Z,72.80
2022-12-26T19:53:53.147Z,72.77
2022-12-26T19:56:25.436Z,72.75
2022-12-26T19:58:56.869Z,72.76
2022-12-26T20:01:30.248Z,72.64
2022-12-26T20:04:01.712Z,72.66
2022-12-26T20:06:31.949Z,72.67
2022-12-26T20:09:09.424Z,72.59
2022-12-26T20:11:44.668Z,72.78
2022-12-26T20:14:16.511Z,72.79
2022-12-26T20:17:05.073Z,72.68
2022-12-26T20:19:34.811Z,72.70
2022-12-26T20:22:03.931Z,72.65
2022-12-26T20:24:32.951Z,72.66
2022-12-26T20:27:02.593Z,72.52
2022-12-26T20:29:31.331Z,72.64
2022-12-26T20:32:00.118Z,72.77
2022-12-26T20:34:30.038Z,72.74
2022-12-26T20:36:58.752Z,72.61
2022-12-26T20:39:28.020Z,72.60
2022-12-26T20:41:58.225Z,72.63
2022-12-26T20:44:26.951Z,72.42
2022-12-26T20:46:55.448Z,72.46
2022-12-26T20:49:24.004Z,72.38
2022-12-26T20:51:53.034Z,72.26
2022-12-26T20:54:21.421Z,72.30
2022-12-26T20:56:50.127Z,72.48
2022-12-26T20:59:19.183Z,72.49
2022-12-26T21:01:47.871Z,72.43
2022-12-26T21:04:19.888Z,72.46
2022-12-26T21:06:50.767Z,72.76
2022-12-26T21:09:19.296Z,72.65
2022-12-26T21:11:47.950Z,72.76
2022-12-26T21:14:20.756Z,72.74
2022-12-26T21:16:58.622Z,72.60
2022-12-26T21:19:30.808Z,72.67
2022-12-26T21:21:59.227Z,72.78
2022-12-26T21:24:30.684Z,72.73
2022-12-26T21:26:59.225Z,72.59
2022-12-26T21:29:30.353Z,72.79
2022-12-26T21:31:59.803Z,72.69
2022-12-26T21:34:30.998Z,72.60
2022-12-26T21:37:19.298Z,72.77
2022-12-26T21:39:47.677Z,72.63
2022-12-26T21:42:16.463Z,72.69
2022-12-26T21:44:44.968Z,72.80
2022-12-26T21:47:13.841Z,72.80
2022-12-26T21:49:42.218Z,72.81
2022-12-26T21:52:11.734Z,72.82
2022-12-26T21:54:58.773Z,72.72
2022-12-26T21:57:27.339Z,72.57
2022-12-26T21:59:58.963Z,72.69
2022-12-26T22:02:50.292Z,72.78
2022-12-26T22:05:21.207Z,72.66
2022-12-26T22:07:55.625Z,72.68
2022-12-26T22:10:45.459Z,72.76
2022-12-26T22:13:14.859Z,72.58
2022-12-26T22:16:03.844Z,72.64
2022-12-26T22:18:40.267Z,72.55
2022-12-26T22:21:18.482Z,72.68
2022-12-26T22:23:50.746Z,72.68
2022-12-26T22:26:21.975Z,72.73
2022-12-26T22:28:51.014Z,72.75
2022-12-26T22:31:30.144Z,72.60
2022-12-26T22:34:12.531Z,72.54
2022-12-26T22:36:41.991Z,72.67
2022-12-26T22:39:13.356Z,72.50
2022-12-26T22:41:41.759Z,72.62
2022-12-26T22:44:14.483Z,72.57
2022-12-26T22:46:43.336Z,72.49
2022-12-26T22:49:11.656Z,72.52
2022-12-26T22:51:41.947Z,72.49
2022-12-26T22:54:13.363Z,72.42
2022-12-26T22:56:41.593Z,72.31
2022-12-26T22:59:13.645Z,72.23
2022-12-26T23:01:47.128Z,71.94
2022-12-26T23:04:16.369Z,72.29
2022-12-26T23:06:45.360Z,72.22
2022-12-26T23:09:16.879Z,72.17
2022-12-26T23:12:05.522Z,72.28
2022-12-26T23:14:34.181Z,72.19
2022-12-26T23:17:07.665Z,72.11
2022-12-26T23:20:10.906Z,72.15
2022-12-26T23:22:40.340Z,72.32
2022-12-26T23:25:12.779Z,72.28
2022-12-26T23:28:21.114Z,72.07
2022-12-26T23:30:49.901Z,72.35
2022-12-26T23:33:19.263Z,72.22
2022-12-26T23:35:48.021Z,72.20
2022-12-26T23:38:17.087Z,72.35
2022-12-26T23:40:46.226Z,72.22
2022-12-26T23:43:15.518Z,72.24
2022-12-26T23:45:45.213Z,72.35
2022-12-26T23:48:14.987Z,72.37
2022-12-26T23:50:43.370Z,72.23
2022-12-26T23:53:12.580Z,72.30
2022-12-26T23:55:42.245Z,72.23
2022-12-26T23:58:11.549Z,72.17
